createdAt,value
2018-10-19T00:00:38.442Z,14.99
2018-10-19T00:03:05.920Z,14.89
2018-10-19T00:05:33.368Z,14.83
2018-10-19T00:08:00.804Z,14.89
2018-10-19T00:10:28.248Z,14.97
2018-10-19T00:12:55.711Z,14.99
2018-10-19T00:15:23.180Z,14.99
2018-10-19T00:17:50.669Z,14.90
2018-10-19T00:20:18.106Z,14.87
2018-10-19T00:22:45.569Z,14.86
2018-10-19T00:25:13.118Z,14.86
2018-10-19T00:27:40.538Z,14.88
2018-10-19T00:30:08.188Z,14.87
2018-10-19T00:32:35.608Z,14.84
2018-10-19T00:35:03.111Z,14.85
2018-10-19T00:37:31.201Z,14.79
2018-10-19T00:39:58.631Z,14.77
2018-10-19T00:42:26.082Z,14.78
2018-10-19T00:44:53.562Z,14.76
2018-10-19T00:47:21.017Z,14.74
2018-10-19T00:49:48.794Z,14.72
2018-10-19T00:52:16.236Z,14.67
2018-10-19T00:54:43.681Z,14.66
2018-10-19T00:57:11.157Z,14.40
2018-10-19T00:59:38.555Z,14.34
2018-10-19T01:02:06.000Z,14.38
2018-10-19T01:04:33.466Z,14.40
2018-10-19T01:07:00.916Z,14.35
2018-10-19T01:09:28.347Z,14.34
2018-10-19T01:11:55.839Z,14.36
2018-10-19T01:14:23.243Z,14.38
2018-10-19T01:16:50.721Z,14.42
2018-10-19T01:19:18.194Z,14.46
2018-10-19T01:21:45.619Z,14.46
2018-10-19T01:24:13.126Z,14.46
2018-10-19T01:26:40.569Z,14.43
2018-10-19T01:29:08.053Z,14.41
2018-10-19T01:31:35.574Z,14.41
2018-10-19T01:34:03.059Z,14.32
2018-10-19T01:36:30.512Z,14.22
2018-10-19T01:38:57.956Z,14.14
2018-10-19T01:41:25.406Z,14.10
2018-10-19T01:43:53.342Z,14.11
2018-10-19T01:46:20.787Z,14.12
2018-10-19T01:48:48.233Z,14.11
2018-10-19T01:51:15.818Z,14.04
2018-10-19T01:53:43.293Z,13.99
2018-10-19T01:56:10.748Z,14.01
2018-10-19T01:58:38.188Z,14.02
2018-10-19T02:01:05.648Z,14.02
2018-10-19T02:03:33.183Z,14.00
2018-10-19T02:06:00.631Z,13.87
2018-10-19T02:08:28.081Z,13.85
2018-10-19T02:10:55.555Z,13.94
2018-10-19T02:13:22.961Z,13.94
2018-10-19T02:15:50.371Z,13.92
2018-10-19T02:18:17.815Z,13.91
2018-10-19T02:20:45.263Z,13.86
2018-10-19T02:23:12.782Z,13.84
2018-10-19T02:25:40.275Z,13.76
2018-10-19T02:28:07.765Z,13.78
2018-10-19T02:30:35.257Z,13.75
2018-10-19T02:33:02.741Z,13.67
2018-10-19T02:35:30.159Z,13.70
2018-10-19T02:37:57.642Z,13.72
2018-10-19T02:40:25.069Z,13.70
2018-10-19T02:42:52.591Z,13.73
2018-10-19T02:45:20.138Z,13.69
2018-10-19T02:47:47.813Z,13.70
2018-10-19T02:50:15.268Z,13.67
2018-10-19T02:52:42.837Z,13.69
2018-10-19T02:55:10.327Z,13.72
2018-10-19T02:57:37.736Z,13.68
2018-10-19T03:00:05.190Z,13.64
2018-10-19T03:02:32.665Z,13.65
2018-10-19T03:05:00.266Z,13.70
2018-10-19T03:07:27.745Z,13.67
2018-10-19T03:09:55.208Z,13.67
2018-10-19T03:12:22.687Z,13.71
2018-10-19T03:14:50.138Z,13.74
2018-10-19T03:17:17.615Z,13.72
2018-10-19T03:19:45.015Z,13.72
2018-10-19T03:22:12.504Z,13.73
2018-10-19T03:24:40.030Z,13.72
2018-10-19T03:27:07.548Z,13.66
2018-10-19T03:29:35.001Z,13.55
2018-10-19T03:32:02.516Z,13.61
2018-10-19T03:34:29.971Z,13.58
2018-10-19T03:36:57.435Z,13.60
2018-10-19T03:39:25.804Z,13.52
2018-10-19T03:41:53.309Z,13.51
2018-10-19T03:44:20.731Z,13.52
2018-10-19T03:46:48.148Z,13.47
2018-10-19T03:49:15.682Z,13.43
2018-10-19T03:51:43.076Z,13.37
2018-10-19T03:54:10.548Z,13.21
2018-10-19T03:56:38.055Z,13.09
2018-10-19T03:59:05.604Z,13.02
2018-10-19T04:01:33.000Z,12.89
2018-10-19T04:04:00.462Z,12.80
2018-10-19T04:06:27.961Z,12.80
2018-10-19T04:08:55.471Z,12.96
2018-10-19T04:11:23.024Z,13.03
2018-10-19T04:13:50.492Z,13.04
2018-10-19T04:16:17.945Z,13.06
2018-10-19T04:18:45.384Z,13.06
2018-10-19T04:21:12.871Z,13.07
2018-10-19T04:23:40.250Z,13.12
2018-10-19T04:26:07.658Z,13.09
2018-10-19T04:28:35.165Z,13.14
2018-10-19T04:31:02.797Z,13.13
2018-10-19T04:33:30.258Z,13.01
2018-10-19T04:35:57.752Z,13.03
2018-10-19T04:38:25.246Z,13.09
2018-10-19T04:40:52.758Z,13.14
2018-10-19T04:43:20.852Z,13.14
2018-10-19T04:45:48.317Z,13.18
2018-10-19T04:48:15.767Z,13.16
2018-10-19T04:50:43.295Z,13.16
2018-10-19T04:53:10.770Z,13.21
2018-10-19T04:55:38.285Z,13.26
2018-10-19T04:58:05.800Z,13.18
2018-10-19T05:00:33.258Z,13.21
2018-10-19T05:03:00.744Z,13.19
2018-10-19T05:05:28.213Z,13.22
2018-10-19T05:07:55.645Z,13.25
2018-10-19T05:10:23.052Z,13.24
2018-10-19T05:12:50.547Z,13.23
2018-10-19T05:15:18.423Z,13.20
2018-10-19T05:17:45.864Z,13.16
2018-10-19T05:20:13.476Z,13.15
2018-10-19T05:22:40.765Z,13.00
2018-10-19T05:25:08.744Z,13.00
2018-10-19T05:27:36.201Z,13.04
2018-10-19T05:30:03.615Z,13.02
2018-10-19T05:32:31.045Z,13.04
2018-10-19T05:34:59.242Z,12.97
2018-10-19T05:37:26.685Z,12.98
2018-10-19T05:39:54.264Z,13.03
2018-10-19T05:42:21.700Z,13.08
2018-10-19T05:44:49.141Z,13.10
2018-10-19T05:47:16.638Z,13.14
2018-10-19T05:49:44.186Z,13.15
2018-10-19T05:52:11.774Z,13.11
2018-10-19T05:54:39.221Z,13.13
2018-10-19T05:57:06.654Z,13.15
2018-10-19T05:59:34.100Z,13.18
2018-10-19T06:02:01.723Z,13.20
2018-10-19T06:04:29.133Z,13.26
2018-10-19T06:06:56.618Z,13.33
2018-10-19T06:09:24.147Z,13.35
2018-10-19T06:11:51.733Z,13.39
2018-10-19T06:14:19.200Z,13.42
2018-10-19T06:16:46.651Z,13.50
2018-10-19T06:19:14.343Z,13.68
2018-10-19T06:21:41.771Z,13.56
2018-10-19T06:24:09.718Z,13.72
2018-10-19T06:26:37.245Z,13.79
2018-10-19T06:29:04.728Z,13.99
2018-10-19T06:31:32.237Z,14.08
2018-10-19T06:33:59.751Z,14.22
2018-10-19T06:36:27.501Z,14.39
2018-10-19T06:38:54.957Z,14.52
2018-10-19T06:41:22.420Z,14.59
2018-10-19T06:43:49.863Z,14.67
2018-10-19T06:46:17.345Z,14.73
2018-10-19T06:48:45.039Z,14.90
2018-10-19T06:51:12.632Z,15.11
2018-10-19T06:53:40.174Z,15.20
2018-10-19T06:56:07.729Z,15.24
2018-10-19T06:58:35.193Z,15.34
2018-10-19T07:01:02.677Z,15.17
2018-10-19T07:03:30.128Z,15.27
2018-10-19T07:05:57.693Z,15.30
2018-10-19T07:08:25.098Z,15.52
2018-10-19T07:10:52.616Z,15.35
2018-10-19T07:13:20.296Z,15.45
2018-10-19T07:15:47.775Z,15.59
2018-10-19T07:18:15.235Z,15.96
2018-10-19T07:20:42.762Z,15.80
2018-10-19T07:23:10.471Z,15.91
2018-10-19T07:25:37.815Z,16.22
2018-10-19T07:28:05.301Z,17.00
2018-10-19T07:30:33.306Z,17.22
2018-10-19T07:33:00.863Z,17.72
2018-10-19T07:35:28.318Z,18.22
2018-10-19T07:37:55.823Z,17.95
2018-10-19T07:40:23.204Z,17.83
2018-10-19T07:42:51.074Z,17.79
2018-10-19T07:45:18.568Z,17.92
2018-10-19T07:47:46.319Z,17.81
2018-10-19T07:50:13.740Z,17.64
2018-10-19T07:52:41.153Z,17.76
2018-10-19T07:55:08.819Z,17.83
2018-10-19T07:57:36.239Z,17.82
2018-10-19T08:00:03.690Z,18.21
2018-10-19T08:02:31.132Z,18.32
2018-10-19T08:04:58.627Z,18.64
2018-10-19T08:07:26.101Z,19.23
2018-10-19T08:09:53.547Z,19.30
2018-10-19T08:12:20.974Z,19.58
2018-10-19T08:14:48.543Z,20.09
2018-10-19T08:17:16.064Z,20.70
2018-10-19T08:19:43.678Z,20.86
2018-10-19T08:22:11.105Z,20.69
2018-10-19T08:24:38.680Z,21.00
2018-10-19T08:27:06.379Z,21.51
2018-10-19T08:29:33.866Z,21.82
2018-10-19T08:32:01.407Z,22.19
2018-10-19T08:34:28.856Z,22.29
2018-10-19T08:36:56.386Z,22.06
2018-10-19T08:39:23.883Z,22.32
2018-10-19T08:41:57.268Z,22.33
2018-10-19T08:44:24.729Z,22.33
2018-10-19T08:46:52.151Z,22.24
2018-10-19T08:49:19.590Z,21.98
2018-10-19T08:51:47.059Z,21.81
2018-10-19T08:54:14.508Z,22.03
2018-10-19T08:56:41.922Z,22.02
2018-10-19T08:59:10.200Z,22.29
2018-10-19T09:01:37.694Z,22.73
2018-10-19T09:04:05.109Z,22.68
2018-10-19T09:06:32.655Z,23.48
2018-10-19T09:09:00.165Z,23.71
2018-10-19T09:11:27.754Z,23.55
2018-10-19T09:13:55.221Z,23.61
2018-10-19T09:16:22.704Z,23.37
2018-10-19T09:18:50.214Z,23.13
2018-10-19T09:21:17.722Z,23.02
2018-10-19T09:23:45.184Z,22.81
2018-10-19T09:26:13.016Z,22.84
2018-10-19T09:28:40.843Z,22.67
2018-10-19T09:31:08.256Z,22.70
2018-10-19T09:33:35.733Z,22.55
2018-10-19T09:36:03.203Z,22.45
2018-10-19T09:38:30.741Z,22.36
2018-10-19T09:40:59.459Z,22.46
2018-10-19T09:43:26.881Z,22.24
2018-10-19T09:45:54.492Z,22.55
2018-10-19T09:48:22.112Z,22.52
2018-10-19T09:50:49.555Z,23.16
2018-10-19T09:53:17.038Z,23.56
2018-10-19T09:55:44.554Z,23.49
2018-10-19T09:58:11.989Z,23.22
2018-10-19T10:00:39.479Z,22.86
2018-10-19T10:03:07.046Z,22.92
2018-10-19T10:05:34.462Z,23.37
2018-10-19T10:08:01.970Z,23.50
2018-10-19T10:10:29.355Z,23.23
2018-10-19T10:12:56.934Z,23.49
2018-10-19T10:15:24.525Z,23.31
2018-10-19T10:17:51.911Z,23.23
2018-10-19T10:20:19.414Z,22.87
2018-10-19T10:22:47.031Z,22.84
2018-10-19T10:25:14.568Z,23.06
2018-10-19T10:27:41.988Z,22.74
2018-10-19T10:30:09.447Z,22.32
2018-10-19T10:32:36.890Z,22.23
2018-10-19T10:35:04.365Z,21.96
2018-10-19T10:37:31.822Z,21.62
2018-10-19T10:39:59.278Z,21.39
2018-10-19T10:42:27.135Z,21.35
2018-10-19T10:44:54.599Z,21.61
2018-10-19T10:47:22.011Z,21.81
2018-10-19T10:49:49.502Z,22.48
2018-10-19T10:52:16.994Z,22.86
2018-10-19T10:54:44.467Z,23.13
2018-10-19T10:57:11.892Z,23.92
2018-10-19T10:59:39.807Z,24.14
2018-10-19T11:02:07.385Z,24.66
2018-10-19T11:04:34.824Z,24.95
2018-10-19T11:07:02.658Z,24.02
2018-10-19T11:09:30.104Z,23.32
2018-10-19T11:11:57.882Z,23.49
2018-10-19T11:14:25.305Z,23.86
2018-10-19T11:16:52.742Z,24.44
2018-10-19T11:19:20.345Z,24.62
2018-10-19T11:21:47.818Z,24.75
2018-10-19T11:24:15.347Z,24.68
2018-10-19T11:26:42.910Z,24.26
2018-10-19T11:29:10.314Z,23.86
2018-10-19T11:31:37.881Z,23.80
2018-10-19T11:34:05.376Z,24.17
2018-10-19T11:36:32.889Z,24.40
2018-10-19T11:39:00.355Z,24.19
2018-10-19T11:41:27.872Z,23.89
2018-10-19T11:43:55.348Z,23.90
2018-10-19T11:46:22.891Z,24.20
2018-10-19T11:48:50.496Z,24.28
2018-10-19T11:51:17.826Z,24.29
2018-10-19T11:53:45.470Z,24.46
2018-10-19T11:56:12.931Z,24.79
2018-10-19T11:58:40.379Z,25.37
2018-10-19T12:01:07.913Z,25.22
2018-10-19T12:03:35.601Z,24.81
2018-10-19T12:06:03.068Z,24.18
2018-10-19T12:08:30.592Z,23.61
2018-10-19T12:10:58.180Z,23.65
2018-10-19T12:13:25.668Z,23.59
2018-10-19T12:15:53.874Z,23.85
2018-10-19T12:18:21.278Z,24.34
2018-10-19T12:20:48.754Z,24.94
2018-10-19T12:23:16.263Z,24.94
2018-10-19T12:25:43.791Z,25.17
2018-10-19T12:28:11.232Z,25.11
2018-10-19T12:30:38.644Z,25.63
2018-10-19T12:33:06.366Z,24.97
2018-10-19T12:35:33.771Z,24.45
2018-10-19T12:38:01.239Z,24.47
2018-10-19T12:40:28.679Z,24.95
2018-10-19T12:42:56.307Z,25.75
2018-10-19T12:45:23.710Z,25.97
2018-10-19T12:47:51.197Z,26.54
2018-10-19T12:50:18.613Z,26.32
2018-10-19T12:52:46.342Z,25.12
2018-10-19T12:55:13.906Z,24.82
2018-10-19T12:57:41.676Z,26.03
2018-10-19T13:00:09.251Z,27.41
2018-10-19T13:02:36.828Z,28.65
2018-10-19T13:05:04.272Z,28.75
2018-10-19T13:07:31.678Z,29.26
2018-10-19T13:09:59.173Z,30.24
2018-10-19T13:12:26.662Z,30.79
2018-10-19T13:14:54.203Z,30.71
2018-10-19T13:17:21.619Z,30.71
2018-10-19T13:19:49.100Z,31.31
2018-10-19T13:22:16.621Z,31.41
2018-10-19T13:24:44.175Z,31.30
2018-10-19T13:27:11.732Z,30.75
2018-10-19T13:29:39.260Z,29.98
2018-10-19T13:32:06.748Z,28.92
2018-10-19T13:34:34.224Z,28.61
2018-10-19T13:37:01.716Z,29.16
2018-10-19T13:39:29.354Z,29.85
2018-10-19T13:41:56.791Z,30.26
2018-10-19T13:44:24.234Z,31.22
2018-10-19T13:46:51.764Z,31.71
2018-10-19T13:49:20.358Z,32.17
2018-10-19T13:51:47.858Z,31.95
2018-10-19T13:54:15.371Z,32.46
2018-10-19T13:56:42.771Z,32.54
2018-10-19T13:59:10.306Z,33.26
2018-10-19T14:01:38.427Z,32.25
2018-10-19T14:04:05.966Z,30.83
2018-10-19T14:06:33.756Z,30.44
2018-10-19T14:09:01.198Z,30.48
2018-10-19T14:11:28.688Z,30.31
2018-10-19T14:13:56.127Z,30.63
2018-10-19T14:16:23.536Z,30.32
2018-10-19T14:18:51.035Z,30.04
2018-10-19T14:21:18.543Z,29.58
2018-10-19T14:23:45.983Z,29.89
2018-10-19T14:26:13.429Z,30.84
2018-10-19T14:28:40.935Z,32.04
2018-10-19T14:31:08.348Z,32.84
2018-10-19T14:33:35.901Z,33.49
2018-10-19T14:36:03.327Z,33.98
2018-10-19T14:38:30.805Z,34.78
2018-10-19T14:40:58.278Z,34.22
2018-10-19T14:43:25.787Z,34.56
2018-10-19T14:45:53.225Z,34.57
2018-10-19T14:48:20.720Z,35.03
2018-10-19T14:50:48.230Z,33.57
2018-10-19T14:53:15.924Z,32.60
2018-10-19T14:55:43.350Z,32.01
2018-10-19T14:58:10.819Z,32.56
2018-10-19T15:00:38.302Z,33.09
2018-10-19T15:03:05.812Z,33.60
2018-10-19T15:05:33.363Z,33.29
2018-10-19T15:08:00.878Z,32.23
2018-10-19T15:10:28.505Z,32.12
2018-10-19T15:12:55.890Z,31.33
2018-10-19T15:15:24.416Z,31.15
2018-10-19T15:17:51.904Z,30.44
2018-10-19T15:20:19.316Z,30.17
2018-10-19T15:22:46.732Z,30.02
2018-10-19T15:25:14.219Z,28.71
2018-10-19T15:27:41.655Z,28.11
2018-10-19T15:30:09.211Z,28.03
2018-10-19T15:32:36.771Z,27.87
2018-10-19T15:35:04.273Z,27.68
2018-10-19T15:37:31.757Z,27.01
2018-10-19T15:39:59.219Z,26.05
2018-10-19T15:42:26.743Z,25.40
2018-10-19T15:44:54.929Z,24.90
2018-10-19T15:47:22.464Z,24.78
2018-10-19T15:49:50.131Z,25.34
2018-10-19T15:52:17.623Z,25.27
2018-10-19T15:54:45.180Z,24.94
2018-10-19T15:57:12.674Z,25.29
2018-10-19T15:59:40.119Z,25.32
2018-10-19T16:02:07.603Z,25.32
2018-10-19T16:04:35.106Z,25.05
2018-10-19T16:07:02.559Z,23.72
2018-10-19T16:09:29.985Z,22.69
2018-10-19T16:11:57.446Z,22.56
2018-10-19T16:14:24.820Z,22.55
2018-10-19T16:16:52.290Z,22.69
2018-10-19T16:19:19.774Z,22.29
2018-10-19T16:21:47.264Z,21.76
2018-10-19T16:24:14.824Z,21.32
2018-10-19T16:26:42.268Z,21.14
2018-10-19T16:29:09.755Z,21.03
2018-10-19T16:31:37.279Z,20.86
2018-10-19T16:34:04.720Z,20.77
2018-10-19T16:36:32.260Z,20.63
2018-10-19T16:38:59.698Z,20.55
2018-10-19T16:41:27.152Z,20.48
2018-10-19T16:43:54.612Z,20.40
2018-10-19T16:46:22.059Z,20.33
2018-10-19T16:48:49.511Z,20.33
2018-10-19T16:51:17.649Z,20.36
2018-10-19T16:53:45.919Z,20.34
2018-10-19T16:56:13.328Z,20.31
2018-10-19T16:58:41.017Z,20.27
2018-10-19T17:01:08.525Z,20.19
2018-10-19T17:03:36.012Z,20.11
2018-10-19T17:06:03.473Z,20.02
2018-10-19T17:08:31.052Z,19.89
2018-10-19T17:10:58.538Z,19.75
2018-10-19T17:13:25.954Z,19.71
2018-10-19T17:15:53.421Z,19.66
2018-10-19T17:18:20.955Z,19.63
2018-10-19T17:20:48.463Z,19.65
2018-10-19T17:23:15.884Z,19.58
2018-10-19T17:25:43.384Z,19.46
2018-10-19T17:28:10.828Z,19.35
2018-10-19T17:30:38.353Z,19.33
2018-10-19T17:33:05.836Z,19.31
2018-10-19T17:35:33.280Z,19.30
2018-10-19T17:38:00.762Z,19.26
2018-10-19T17:40:28.414Z,19.26
2018-10-19T17:42:55.935Z,19.27
2018-10-19T17:45:23.503Z,19.25
2018-10-19T17:47:51.052Z,19.21
2018-10-19T17:50:18.486Z,19.17
2018-10-19T17:52:45.956Z,19.17
2018-10-19T17:55:13.433Z,19.10
2018-10-19T17:57:41.030Z,19.06
2018-10-19T18:00:08.613Z,19.03
2018-10-19T18:02:36.110Z,18.99
2018-10-19T18:05:03.719Z,18.94
2018-10-19T18:07:31.160Z,18.84
2018-10-19T18:09:58.628Z,18.85
2018-10-19T18:12:26.084Z,18.85
2018-10-19T18:14:53.649Z,18.81
2018-10-19T18:17:21.086Z,18.84
2018-10-19T18:19:48.589Z,18.80
2018-10-19T18:22:16.292Z,18.78
2018-10-19T18:24:44.177Z,18.74
2018-10-19T18:27:11.672Z,18.74
2018-10-19T18:29:39.155Z,18.59
2018-10-19T18:32:06.743Z,18.52
2018-10-19T18:34:34.175Z,18.51
2018-10-19T18:37:01.805Z,18.47
2018-10-19T18:39:29.287Z,18.45
2018-10-19T18:41:56.733Z,18.40
2018-10-19T18:44:24.276Z,18.40
2018-10-19T18:46:51.924Z,18.40
2018-10-19T18:49:19.622Z,18.45
2018-10-19T18:51:47.058Z,18.41
2018-10-19T18:54:14.480Z,18.39
2018-10-19T18:56:42.020Z,18.37
2018-10-19T18:59:09.554Z,18.36
2018-10-19T19:01:36.965Z,18.27
2018-10-19T19:04:04.357Z,18.20
2018-10-19T19:06:32.578Z,18.12
2018-10-19T19:09:00.066Z,18.06
2018-10-19T19:11:27.532Z,18.03
2018-10-19T19:13:55.135Z,18.02
2018-10-19T19:16:22.582Z,17.93
2018-10-19T19:18:51.115Z,17.94
2018-10-19T19:21:18.731Z,17.94
2018-10-19T19:23:46.146Z,17.95
2018-10-19T19:26:19.902Z,17.98
2018-10-19T19:28:47.721Z,18.03
2018-10-19T19:31:15.188Z,18.04
2018-10-19T19:36:34.900Z,18.25
2018-10-19T19:39:02.418Z,18.11
2018-10-19T19:41:29.835Z,18.02
2018-10-19T19:43:57.348Z,18.01
2018-10-19T19:46:24.817Z,17.99
2018-10-19T19:51:51.955Z,18.18
2018-10-19T19:54:19.559Z,18.09
2018-10-19T19:56:47.026Z,18.01
2018-10-19T19:59:14.585Z,17.92
2018-10-19T20:01:41.987Z,17.89
2018-10-19T20:04:09.443Z,17.89
2018-10-19T20:06:36.876Z,17.89
2018-10-19T20:09:04.392Z,17.80
2018-10-19T20:11:31.955Z,17.72
2018-10-19T20:13:59.473Z,17.63
2018-10-19T20:16:26.954Z,17.57
2018-10-19T20:18:54.620Z,17.53
2018-10-19T20:21:22.102Z,17.43
2018-10-19T20:23:49.900Z,17.30
2018-10-19T20:26:17.444Z,17.14
2018-10-19T20:28:45.899Z,17.07
2018-10-19T20:31:13.444Z,17.00
2018-10-19T20:33:41.385Z,16.98
2018-10-19T20:36:08.911Z,16.92
2018-10-19T20:38:36.513Z,16.89
2018-10-19T20:41:04.521Z,16.87
2018-10-19T20:43:32.440Z,16.86
2018-10-19T20:45:59.897Z,16.84
2018-10-19T20:48:27.527Z,16.80
2018-10-19T20:50:55.143Z,16.71
2018-10-19T20:53:23.455Z,16.73
2018-10-19T20:55:51.023Z,16.72
2018-10-19T20:58:18.509Z,16.70
2018-10-19T21:00:46.034Z,16.66
2018-10-19T21:03:13.466Z,16.63
2018-10-19T21:05:42.052Z,16.59
2018-10-19T21:08:09.555Z,16.58
2018-10-19T21:10:38.746Z,16.55
2018-10-19T21:13:06.276Z,16.35
2018-10-19T21:15:33.762Z,16.14
2018-10-19T21:18:01.208Z,16.00
2018-10-19T21:20:28.851Z,15.95
2018-10-19T21:22:56.349Z,15.95
2018-10-19T21:25:23.822Z,15.92
2018-10-19T21:27:51.592Z,15.97
2018-10-19T21:30:19.185Z,16.03
2018-10-19T21:32:47.183Z,16.04
2018-10-19T21:35:14.755Z,16.03
2018-10-19T21:37:42.476Z,16.05
2018-10-19T21:40:10.151Z,16.07
2018-10-19T21:42:37.633Z,16.03
2018-10-19T21:45:05.279Z,16.00
2018-10-19T21:47:32.880Z,15.95
2018-10-19T21:50:00.502Z,15.98
2018-10-19T21:52:28.040Z,15.96
2018-10-19T21:54:55.552Z,15.95
2018-10-19T21:57:22.994Z,15.96
2018-10-19T21:59:50.530Z,15.87
2018-10-19T22:02:17.949Z,15.87
2018-10-19T22:04:45.531Z,15.77
2018-10-19T22:07:13.007Z,15.70
2018-10-19T22:09:41.360Z,15.74
2018-10-19T22:12:08.808Z,15.77
2018-10-19T22:14:36.298Z,15.63
2018-10-19T22:17:03.868Z,15.55
2018-10-19T22:19:31.702Z,15.51
2018-10-19T22:21:59.123Z,15.57
2018-10-19T22:24:26.645Z,15.58
2018-10-19T22:26:54.085Z,15.64
2018-10-19T22:29:21.531Z,15.64
2018-10-19T22:31:49.000Z,15.53
2018-10-19T22:34:16.626Z,15.35
2018-10-19T22:36:44.140Z,15.27
2018-10-19T22:39:11.575Z,15.22
2018-10-19T22:41:39.062Z,15.20
2018-10-19T22:44:06.719Z,15.18
2018-10-19T22:46:34.389Z,15.16
2018-10-19T22:49:02.146Z,15.12
2018-10-19T22:51:30.092Z,15.12
2018-10-19T22:53:57.663Z,15.04
2018-10-19T22:56:25.304Z,15.04
2018-10-19T22:58:52.813Z,15.08
2018-10-19T23:01:20.466Z,15.15
2018-10-19T23:03:47.965Z,15.14
2018-10-19T23:06:15.584Z,15.17
2018-10-19T23:08:43.069Z,15.15
2018-10-19T23:11:10.940Z,15.06
2018-10-19T23:13:38.479Z,15.00
2018-10-19T23:16:05.953Z,14.99
2018-10-19T23:18:33.549Z,14.94
2018-10-19T23:21:01.105Z,14.68
2018-10-19T23:23:28.679Z,14.67
2018-10-19T23:25:56.153Z,14.74
2018-10-19T23:28:23.680Z,14.86
2018-10-19T23:30:51.099Z,14.89
2018-10-19T23:33:18.535Z,14.88
2018-10-19T23:35:46.058Z,14.90
2018-10-19T23:38:13.832Z,14.82
2018-10-19T23:40:41.325Z,14.78
2018-10-19T23:43:10.069Z,14.69
2018-10-19T23:45:37.532Z,14.57
2018-10-19T23:48:05.034Z,14.63
2018-10-19T23:50:32.725Z,14.62
2018-10-19T23:53:00.317Z,14.63
2018-10-19T23:55:27.770Z,14.43
2018-10-19T23:57:55.209Z,14.40
